Time,TemperatureF,DewpointF,PressureIn,WindDirection,WindDirectionDegrees,WindSpeedMPH,WindSpeedGustMPH,Humidity,HourlyPrecipIn,Conditions,Clouds,dailyrainin,SoftwareType,DateUTC
2013-02-04 00:00:00,31.7,13.3,29.97,WNW,285,9.0,9.0,46,0.00,,---,0.00,VWS V14.01,2013-02-04 05:00:00,
2013-02-04 00:02:00,31.7,13.3,29.97,WNW,298,2.0,9.0,46,0.00,,---,0.00,VWS V14.01,2013-02-04 05:02:00,
2013-02-04 00:03:00,31.6,13.2,29.97,NW,312,3.0,9.0,46,0.00,,---,0.00,VWS V14.01,2013-02-04 05:03:00,
2013-02-04 00:08:00,31.4,13.5,29.97,SW,217,1.0,10.0,47,0.00,,---,0.00,VWS V14.01,2013-02-04 05:08:00,
2013-02-04 00:10:00,31.4,13.5,29.97,WNW,300,2.0,10.0,47,0.00,,---,0.00,VWS V14.01,2013-02-04 05:10:00,
2013-02-04 00:13:00,31.2,13.3,29.97,WNW,284,0.0,6.0,47,0.00,,---,0.00,VWS V14.01,2013-02-04 05:13:00,
2013-02-04 00:18:00,31.2,13.3,29.97,WNW,284,2.0,9.0,47,0.00,,---,0.00,VWS V14.01,2013-02-04 05:18:00,
2013-02-04 00:20:00,31.0,13.1,29.97,WNW,287,1.0,9.0,47,0.00,,---,0.00,VWS V14.01,2013-02-04 05:20:00,
2013-02-04 00:23:00,30.9,13.5,29.97,SW,215,0.0,3.0,48,0.00,,---,0.00,VWS V14.01,2013-02-04 05:23:00,
2013-02-04 00:28:00,30.7,12.9,29.98,WNW,284,1.0,10.0,47,0.00,,---,0.00,VWS V14.01,2013-02-04 05:28:00,
2013-02-04 00:30:00,30.7,13.4,29.98,WNW,297,0.0,10.0,48,0.00,,---,0.00,VWS V14.01,2013-02-04 05:30:00,
2013-02-04 00:33:00,30.6,13.3,29.98,West,278,2.0,6.0,48,0.00,,---,0.00,VWS V14.01,2013-02-04 05:33:00,
2013-02-04 00:38:00,30.3,13.0,29.98,West,275,0.0,6.0,48,0.00,,---,0.00,VWS V14.01,2013-02-04 05:38:00,
2013-02-04 00:40:00,30.3,13.0,29.98,WSW,249,1.0,6.0,48,0.00,,---,0.00,VWS V14.01,2013-02-04 05:40:00,
2013-02-04 00:43:00,30.2,12.9,29.98,SW,222,0.0,2.0,48,0.00,,---,0.00,VWS V14.01,2013-02-04 05:43:00,
2013-02-04 00:48:00,29.9,13.1,29.98,WNW,284,1.0,7.0,49,0.00,,---,0.00,VWS V14.01,2013-02-04 05:48:00,
2013-02-04 00:50:00,29.8,13.0,29.98,NW,324,0.0,7.0,49,0.00,,---,0.00,VWS V14.01,2013-02-04 05:50:00,
2013-02-04 00:53:00,29.6,13.3,29.98,West,262,0.0,1.0,50,0.00,,---,0.00,VWS V14.01,2013-02-04 05:53:00,
2013-02-04 00:58:00,29.2,13.3,29.98,WNW,283,1.0,4.0,51,0.00,,---,0.00,VWS V14.01,2013-02-04 05:58:00,
2013-02-04 01:00:00,29.1,13.7,29.98,WNW,290,0.0,4.0,52,0.00,,---,0.00,VWS V14.01,2013-02-04 06:00:00,
2013-02-04 01:03:00,29.0,13.1,29.98,WNW,290,1.0,2.0,51,0.00,,---,0.00,VWS V14.01,2013-02-04 06:03:00,
2013-02-04 01:08:00,29.1,13.2,29.98,West,278,2.0,5.0,51,0.00,,---,0.00,VWS V14.01,2013-02-04 06:08:00,
2013-02-04 01:10:00,29.1,12.8,29.98,WNW,285,2.0,5.0,50,0.00,,---,0.00,VWS V14.01,2013-02-04 06:10:00,
2013-02-04 01:13:00,29.1,13.2,29.98,WNW,288,1.0,4.0,51,0.00,,---,0.00,VWS V14.01,2013-02-04 06:13:00,
2013-02-04 01:18:00,29.0,12.7,29.98,West,271,0.0,4.0,50,0.00,,---,0.00,VWS V14.01,2013-02-04 06:18:00,
2013-02-04 01:20:00,28.9,12.6,29.98,WNW,302,2.0,4.0,50,0.00,,---,0.00,VWS V14.01,2013-02-04 06:20:00,
2013-02-04 01:23:00,29.0,12.7,29.98,WNW,302,0.0,9.0,50,0.00,,---,0.00,VWS V14.01,2013-02-04 06:23:00,
2013-02-04 01:28:00,29.0,12.7,29.98,WNW,290,0.0,9.0,50,0.00,,---,0.00,VWS V14.01,2013-02-04 06:28:00,
2013-02-04 01:30:00,28.9,12.6,29.98,North,360,3.0,9.0,50,0.00,,---,0.00,VWS V14.01,2013-02-04 06:30:00,
2013-02-04 01:33:00,28.9,12.6,29.98,NNE,25,0.0,3.0,50,0.00,,---,0.00,VWS V14.01,2013-02-04 06:33:00,
2013-02-04 01:38:00,28.9,12.6,29.98,NW,325,0.0,6.0,50,0.00,,---,0.00,VWS V14.01,2013-02-04 06:38:00,
2013-02-04 01:40:00,28.9,12.6,29.98,WSW,255,0.0,6.0,50,0.00,,---,0.00,VWS V14.01,2013-02-04 06:40:00,
2013-02-04 01:43:00,28.8,12.5,29.98,West,280,0.0,1.0,50,0.00,,---,0.00,VWS V14.01,2013-02-04 06:43:00,
2013-02-04 01:48:00,28.4,12.6,29.98,West,279,0.0,1.0,51,0.00,,---,0.00,VWS V14.01,2013-02-04 06:48:00,
2013-02-04 01:50:00,28.3,12.5,29.98,West,280,0.0,1.0,51,0.00,,---,0.00,VWS V14.01,2013-02-04 06:50:00,
2013-02-04 01:53:00,28.2,12.4,29.99,NNE,19,1.0,2.0,51,0.00,,---,0.00,VWS V14.01,2013-02-04 06:53:00,
2013-02-04 01:58:00,28.0,12.2,29.98,WNW,289,1.0,3.0,51,0.00,,---,0.00,VWS V14.01,2013-02-04 06:58:00,
2013-02-04 02:00:00,28.1,12.8,29.98,West,281,0.0,3.0,52,0.00,,---,0.00,VWS V14.01,2013-02-04 07:00:00,
2013-02-04 02:03:00,28.0,12.7,29.99,NNW,336,0.0,1.0,52,0.00,,---,0.00,VWS V14.01,2013-02-04 07:03:00,
2013-02-04 02:08:00,28.0,12.2,29.99,NW,324,1.0,3.0,51,0.00,,---,0.00,VWS V14.01,2013-02-04 07:08:00,
2013-02-04 02:10:00,28.0,12.2,29.98,WNW,298,0.0,3.0,51,0.00,,---,0.00,VWS V14.01,2013-02-04 07:10:00,
2013-02-04 02:13:00,27.9,12.6,29.99,WSW,255,0.0,1.0,52,0.00,,---,0.00,VWS V14.01,2013-02-04 07:13:00,
2013-02-04 02:19:00,27.6,12.7,29.99,West,274,0.0,1.0,53,0.00,,---,0.00,VWS V14.01,2013-02-04 07:19:00,
2013-02-04 02:20:00,27.5,12.6,29.99,NNE,20,0.0,1.0,53,0.00,,---,0.00,VWS V14.01,2013-02-04 07:20:00,
2013-02-04 02:24:00,27.2,12.8,29.99,SE,129,0.0,3.0,54,0.00,,---,0.00,VWS V14.01,2013-02-04 07:24:00,
2013-02-04 02:29:00,27.3,12.0,29.98,ENE,63,1.0,3.0,52,0.00,,---,0.00,VWS V14.01,2013-02-04 07:29:00,
2013-02-04 02:30:00,27.4,12.5,29.98,ENE,63,1.0,3.0,53,0.00,,---,0.00,VWS V14.01,2013-02-04 07:30:00,
2013-02-04 02:34:00,27.4,12.5,29.99,ENE,68,0.0,2.0,53,0.00,,---,0.00,VWS V14.01,2013-02-04 07:34:00,
2013-02-04 02:39:00,27.5,12.2,29.99,WSW,245,0.0,2.0,52,0.00,,---,0.00,VWS V14.01,2013-02-04 07:39:00,
2013-02-04 02:40:00,27.5,12.6,29.98,West,277,0.0,2.0,53,0.00,,---,0.00,VWS V14.01,2013-02-04 07:40:00,
2013-02-04 02:44:00,27.8,12.0,29.99,NW,313,1.0,7.0,51,0.00,,---,0.00,VWS V14.01,2013-02-04 07:44:00,
2013-02-04 02:49:00,28.0,12.2,29.99,NNE,18,1.0,7.0,51,0.00,,---,0.00,VWS V14.01,2013-02-04 07:49:00,
2013-02-04 02:50:00,28.0,12.2,29.99,NNE,31,0.0,7.0,51,0.00,,---,0.00,VWS V14.01,2013-02-04 07:50:00,
2013-02-04 02:54:00,27.8,12.0,29.99,WNW,286,1.0,4.0,51,0.00,,---,0.00,VWS V14.01,2013-02-04 07:54:00,
2013-02-04 02:59:00,27.8,12.0,29.99,NNW,348,0.0,4.0,51,0.00,,---,0.00,VWS V14.01,2013-02-04 07:59:00,
2013-02-04 03:00:00,27.9,12.1,29.99,North,349,0.0,4.0,51,0.00,,---,0.00,VWS V14.01,2013-02-04 08:00:00,
2013-02-04 03:04:00,27.7,11.9,29.99,ENE,78,0.0,1.0,51,0.00,,---,0.00,VWS V14.01,2013-02-04 08:04:00,
2013-02-04 03:09:00,27.2,13.2,29.99,East,87,2.0,2.0,55,0.00,,---,0.00,VWS V14.01,2013-02-04 08:09:00,
2013-02-04 03:10:00,27.0,13.0,29.99,East,86,2.0,2.0,55,0.00,,---,0.00,VWS V14.01,2013-02-04 08:10:00,
2013-02-04 03:14:00,25.8,14.2,29.99,SSW,200,0.0,2.0,61,0.00,,---,0.00,VWS V14.01,2013-02-04 08:14:00,
2013-02-04 03:19:00,24.8,14.4,29.99,East,98,1.0,2.0,64,0.00,,---,0.00,VWS V14.01,2013-02-04 08:19:00,
2013-02-04 03:20:00,24.8,14.4,29.99,ENE,72,1.0,2.0,64,0.00,,---,0.00,VWS V14.01,2013-02-04 08:20:00,
2013-02-04 03:24:00,24.2,14.1,29.99,East,83,2.0,2.0,65,0.00,,---,0.00,VWS V14.01,2013-02-04 08:24:00,
2013-02-04 03:29:00,23.9,13.9,29.99,ENE,71,1.0,2.0,65,0.00,,---,0.00,VWS V14.01,2013-02-04 08:29:00,
2013-02-04 03:30:00,23.9,13.5,29.99,ENE,70,1.0,2.0,64,0.00,,---,0.00,VWS V14.01,2013-02-04 08:30:00,
2013-02-04 03:34:00,24.2,13.4,29.98,ENE,78,2.0,2.0,63,0.00,,---,0.00,VWS V14.01,2013-02-04 08:34:00,
2013-02-04 03:39:00,24.6,12.7,29.99,ENE,75,0.0,3.0,60,0.00,,---,0.00,VWS V14.01,2013-02-04 08:39:00,
2013-02-04 03:40:00,24.6,12.7,29.99,ENE,75,0.0,3.0,60,0.00,,---,0.00,VWS V14.01,2013-02-04 08:40:00,
2013-02-04 03:44:00,24.6,14.5,29.99,WSW,241,0.0,1.0,65,0.00,,---,0.00,VWS V14.01,2013-02-04 08:44:00,
2013-02-04 03:49:00,23.9,13.9,29.99,ENE,72,0.0,2.0,65,0.00,,---,0.00,VWS V14.01,2013-02-04 08:49:00,
2013-02-04 03:50:00,23.8,13.8,29.99,East,84,1.0,2.0,65,0.00,,---,0.00,VWS V14.01,2013-02-04 08:50:00,
2013-02-04 03:54:00,23.8,13.4,30.00,NE,41,0.0,1.0,64,0.00,,---,0.00,VWS V14.01,2013-02-04 08:54:00,
2013-02-04 03:59:00,23.7,13.0,30.00,NW,308,1.0,1.0,63,0.00,,---,0.00,VWS V14.01,2013-02-04 08:59:00,
2013-02-04 04:00:00,23.7,13.7,30.00,NW,308,0.0,1.0,65,0.00,,---,0.00,VWS V14.01,2013-02-04 09:00:00,
2013-02-04 04:04:00,23.3,13.6,30.00,NW,309,0.0,0.0,66,0.00,,---,0.00,VWS V14.01,2013-02-04 09:04:00,
2013-02-04 04:09:00,23.2,13.5,30.00,SSW,212,0.0,1.0,66,0.00,,---,0.00,VWS V14.01,2013-02-04 09:09:00,
2013-02-04 04:10:00,23.2,13.5,30.00,SW,219,0.0,1.0,66,0.00,,---,0.00,VWS V14.01,2013-02-04 09:10:00,
2013-02-04 04:14:00,22.9,13.6,29.99,ENE,71,0.0,1.0,67,0.00,,---,0.00,VWS V14.01,2013-02-04 09:14:00,
2013-02-04 04:19:00,23.4,12.7,29.99,ESE,121,0.0,1.0,63,0.00,,---,0.00,VWS V14.01,2013-02-04 09:19:00,
2013-02-04 04:20:00,23.4,12.7,29.99,ESE,119,0.0,1.0,63,0.00,,---,0.00,VWS V14.01,2013-02-04 09:20:00,
2013-02-04 04:24:00,24.2,12.7,29.99,ESE,123,0.0,1.0,61,0.00,,---,0.00,VWS V14.01,2013-02-04 09:24:00,
2013-02-04 04:29:00,23.6,14.6,30.00,West,278,0.0,1.0,68,0.00,,---,0.00,VWS V14.01,2013-02-04 09:29:00,
2013-02-04 04:30:00,23.6,14.6,30.00,West,278,0.0,1.0,68,0.00,,---,0.00,VWS V14.01,2013-02-04 09:30:00,
2013-02-04 04:34:00,23.0,14.4,30.00,WNW,284,0.0,2.0,69,0.00,,---,0.00,VWS V14.01,2013-02-04 09:34:00,
2013-02-04 04:39:00,22.8,13.8,30.00,WNW,295,0.0,2.0,68,0.00,,---,0.00,VWS V14.01,2013-02-04 09:39:00,
2013-02-04 04:40:00,22.8,13.8,30.00,WNW,295,0.0,2.0,68,0.00,,---,0.00,VWS V14.01,2013-02-04 09:40:00,
2013-02-04 04:44:00,22.8,14.5,30.01,WSW,253,0.0,1.0,70,0.00,,---,0.00,VWS V14.01,2013-02-04 09:44:00,
2013-02-04 04:49:00,22.5,14.2,30.01,North,6,1.0,1.0,70,0.00,,---,0.00,VWS V14.01,2013-02-04 09:49:00,
2013-02-04 04:50:00,22.5,14.2,30.01,North,6,1.0,1.0,70,0.00,,---,0.00,VWS V14.01,2013-02-04 09:50:00,
2013-02-04 04:54:00,22.3,14.0,30.01,North,6,1.0,1.0,70,0.00,,---,0.00,VWS V14.01,2013-02-04 09:54:00,
2013-02-04 04:59:00,22.3,13.7,30.01,North,6,0.0,1.0,69,0.00,,---,0.00,VWS V14.01,2013-02-04 09:59:00,
2013-02-04 05:00:00,22.3,13.7,30.01,North,6,0.0,1.0,69,0.00,,---,0.00,VWS V14.01,2013-02-04 10:00:00,
2013-02-04 05:04:00,22.4,14.8,30.00,North,6,0.0,0.0,72,0.00,,---,0.00,VWS V14.01,2013-02-04 10:04:00,
2013-02-04 05:09:00,21.9,14.0,30.01,North,6,0.0,0.0,71,0.00,,---,0.00,VWS V14.01,2013-02-04 10:09:00,
2013-02-04 05:10:00,21.9,13.9,30.01,North,6,0.0,0.0,71,0.00,,---,0.00,VWS V14.01,2013-02-04 10:10:00,
2013-02-04 05:14:00,21.6,14.6,30.01,North,6,0.0,0.0,74,0.00,,---,0.00,VWS V14.01,2013-02-04 10:14:00,
2013-02-04 05:19:00,21.2,14.2,30.01,North,6,0.0,0.0,74,0.00,,---,0.00,VWS V14.01,2013-02-04 10:19:00,
2013-02-04 05:20:00,21.2,14.2,30.01,North,6,0.0,0.0,74,0.00,,---,0.00,VWS V14.01,2013-02-04 10:20:00,
2013-02-04 05:24:00,20.9,14.5,30.01,North,6,0.0,0.0,76,0.00,,---,0.00,VWS V14.01,2013-02-04 10:24:00,
2013-02-04 05:29:00,20.9,14.2,30.02,North,6,0.0,0.0,75,0.00,,---,0.00,VWS V14.01,2013-02-04 10:29:00,
2013-02-04 05:30:00,20.9,14.2,30.02,North,6,0.0,0.0,75,0.00,,---,0.00,VWS V14.01,2013-02-04 10:30:00,
2013-02-04 05:35:00,20.5,13.9,30.02,North,6,0.0,0.0,75,0.00,,---,0.00,VWS V14.01,2013-02-04 10:35:00,
2013-02-04 05:40:00,19.9,13.3,30.03,North,6,0.0,0.0,75,0.00,,---,0.00,VWS V14.01,2013-02-04 10:40:00,
2013-02-04 05:45:00,19.9,14.2,30.03,North,6,0.0,0.0,78,0.00,,---,0.00,VWS V14.01,2013-02-04 10:45:00,
2013-02-04 05:50:00,20.1,14.4,30.03,North,6,0.0,0.0,78,0.00,,---,0.00,VWS V14.01,2013-02-04 10:50:00,
2013-02-04 05:55:00,20.2,14.4,30.04,NE,35,0.0,0.0,78,0.00,,---,0.00,VWS V14.01,2013-02-04 10:55:00,
2013-02-04 06:00:00,20.3,14.3,30.04,NE,35,0.0,0.0,77,0.00,,---,0.00,VWS V14.01,2013-02-04 11:00:00,
2013-02-04 06:05:00,20.2,14.2,30.04,NE,36,0.0,1.0,77,0.00,,---,0.00,VWS V14.01,2013-02-04 11:05:00,
2013-02-04 06:10:00,20.3,14.3,30.04,NE,36,0.0,0.0,77,0.00,,---,0.00,VWS V14.01,2013-02-04 11:10:00,
2013-02-04 06:15:00,20.2,14.4,30.04,SSE,152,0.0,0.0,78,0.00,,---,0.00,VWS V14.01,2013-02-04 11:15:00,
2013-02-04 06:20:00,19.8,14.1,30.05,SSE,153,0.0,0.0,78,0.00,,---,0.00,VWS V14.01,2013-02-04 11:20:00,
2013-02-04 06:25:00,19.6,14.2,30.05,SSE,153,0.0,0.0,79,0.00,,---,0.00,VWS V14.01,2013-02-04 11:25:00,
2013-02-04 06:30:00,19.4,14.2,30.05,SSE,153,0.0,0.0,80,0.00,,---,0.00,VWS V14.01,2013-02-04 11:30:00,
2013-02-04 06:35:00,19.4,14.5,30.05,SSE,153,0.0,0.0,81,0.00,,---,0.00,VWS V14.01,2013-02-04 11:35:00,
2013-02-04 06:40:00,19.6,13.9,30.06,East,89,1.0,1.0,78,0.00,,---,0.00,VWS V14.01,2013-02-04 11:40:00,
2013-02-04 06:45:00,20.0,12.8,30.06,East,89,1.0,1.0,73,0.00,,---,0.00,VWS V14.01,2013-02-04 11:45:00,
2013-02-04 06:50:00,20.5,13.2,30.06,SSE,163,0.0,0.0,73,0.00,,---,0.00,VWS V14.01,2013-02-04 11:50:00,
2013-02-04 06:55:00,20.1,13.8,30.07,SSE,164,0.0,0.0,76,0.00,,---,0.00,VWS V14.01,2013-02-04 11:55:00,
2013-02-04 07:00:00,19.8,13.8,30.07,SSE,162,0.0,0.0,77,0.00,,---,0.00,VWS V14.01,2013-02-04 12:00:00,
2013-02-04 07:05:00,19.8,14.1,30.07,SSE,162,0.0,0.0,78,0.00,,---,0.00,VWS V14.01,2013-02-04 12:05:00,
2013-02-04 07:10:00,19.7,14.0,30.08,West,263,0.0,0.0,78,0.00,,---,0.00,VWS V14.01,2013-02-04 12:10:00,
2013-02-04 07:15:00,19.5,14.4,30.08,West,262,0.0,0.0,80,0.00,,---,0.00,VWS V14.01,2013-02-04 12:15:00,
2013-02-04 07:20:00,19.6,14.7,30.08,NNW,332,0.0,0.0,81,0.00,,---,0.00,VWS V14.01,2013-02-04 12:20:00,
2013-02-04 07:25:00,19.5,14.6,30.08,SW,214,0.0,1.0,81,0.00,,---,0.00,VWS V14.01,2013-02-04 12:25:00,
2013-02-04 07:30:00,19.3,14.4,30.08,SW,214,0.0,0.0,81,0.00,,---,0.00,VWS V14.01,2013-02-04 12:30:00,
2013-02-04 07:35:00,19.4,15.1,30.08,SW,214,0.0,0.0,83,0.00,,---,0.00,VWS V14.01,2013-02-04 12:35:00,
2013-02-04 07:40:00,19.5,15.2,30.08,SW,214,0.0,0.0,83,0.00,,---,0.00,VWS V14.01,2013-02-04 12:40:00,
2013-02-04 07:45:00,19.8,15.2,30.08,SW,214,0.0,0.0,82,0.00,,---,0.00,VWS V14.01,2013-02-04 12:45:00,
2013-02-04 07:50:00,20.3,15.4,30.08,SW,214,0.0,0.0,81,0.00,,---,0.00,VWS V14.01,2013-02-04 12:50:00,
2013-02-04 07:55:00,20.9,16.0,30.08,SW,214,0.0,0.0,81,0.00,,---,0.00,VWS V14.01,2013-02-04 12:55:00,
2013-02-04 08:00:00,21.4,16.5,30.09,SW,214,0.0,0.0,81,0.00,,---,0.00,VWS V14.01,2013-02-04 13:00:00,
2013-02-04 08:05:00,22.0,17.1,30.09,SW,214,0.0,0.0,81,0.00,,---,0.00,VWS V14.01,2013-02-04 13:05:00,
2013-02-04 08:10:00,22.5,17.6,30.09,SW,214,0.0,0.0,81,0.00,,---,0.00,VWS V14.01,2013-02-04 13:10:00,
2013-02-04 08:15:00,23.0,17.8,30.09,SW,214,0.0,0.0,80,0.00,,---,0.00,VWS V14.01,2013-02-04 13:15:00,
2013-02-04 08:20:00,23.4,17.9,30.09,SW,214,0.0,0.0,79,0.00,,---,0.00,VWS V14.01,2013-02-04 13:20:00,
2013-02-04 08:25:00,23.9,17.8,30.09,SW,214,0.0,0.0,77,0.00,,---,0.00,VWS V14.01,2013-02-04 13:25:00,
2013-02-04 08:30:00,24.7,18.2,30.10,SW,214,0.0,0.0,76,0.00,,---,0.00,VWS V14.01,2013-02-04 13:30:00,
2013-02-04 08:35:00,25.8,18.7,30.09,SW,214,0.0,0.0,74,0.00,,---,0.00,VWS V14.01,2013-02-04 13:35:00,
2013-02-04 08:40:00,26.4,18.6,30.10,SW,214,0.0,0.0,72,0.00,,---,0.00,VWS V14.01,2013-02-04 13:40:00,
2013-02-04 08:45:00,26.5,18.7,30.11,SW,214,0.0,0.0,72,0.00,,---,0.00,VWS V14.01,2013-02-04 13:45:00,
2013-02-04 08:50:00,26.9,20.7,30.10,SW,214,0.0,0.0,77,0.00,,---,0.00,VWS V14.01,2013-02-04 13:50:00,
2013-02-04 08:55:00,27.4,19.9,30.10,SE,127,2.0,2.0,73,0.00,,---,0.00,VWS V14.01,2013-02-04 13:55:00,
2013-02-04 09:00:00,27.7,19.5,30.10,SE,125,1.0,1.0,71,0.00,,---,0.00,VWS V14.01,2013-02-04 14:00:00,
2013-02-04 09:05:00,28.1,18.2,30.10,SSE,155,1.0,2.0,66,0.00,,---,0.00,VWS V14.01,2013-02-04 14:05:00,
2013-02-04 09:10:00,28.8,18.2,30.11,SE,124,0.0,1.0,64,0.00,,---,0.00,VWS V14.01,2013-02-04 14:10:00,
2013-02-04 09:15:00,29.2,17.4,30.11,SSW,198,0.0,1.0,61,0.00,,---,0.00,VWS V14.01,2013-02-04 14:15:00,
2013-02-04 09:20:00,29.4,17.6,30.11,SSW,208,1.0,1.0,61,0.00,,---,0.00,VWS V14.01,2013-02-04 14:20:00,
2013-02-04 09:25:00,29.6,17.8,30.11,WSW,248,0.0,4.0,61,0.00,,---,0.00,VWS V14.01,2013-02-04 14:25:00,
2013-02-04 09:30:00,29.7,17.1,30.11,SSE,152,2.0,2.0,59,0.00,,---,0.00,VWS V14.01,2013-02-04 14:30:00,
2013-02-04 09:35:00,29.7,17.1,30.11,West,277,0.0,2.0,59,0.00,,---,0.00,VWS V14.01,2013-02-04 14:35:00,
2013-02-04 09:40:00,29.7,17.1,30.11,WSW,256,2.0,4.0,59,0.00,,---,0.00,VWS V14.01,2013-02-04 14:40:00,
2013-02-04 09:45:00,30.1,17.9,30.10,SSW,204,1.0,4.0,60,0.00,,---,0.00,VWS V14.01,2013-02-04 14:45:00,
2013-02-04 09:50:00,30.4,17.4,30.10,WSW,242,2.0,3.0,58,0.00,,---,0.00,VWS V14.01,2013-02-04 14:50:00,
2013-02-04 09:55:00,30.6,17.2,30.09,SSE,162,0.0,3.0,57,0.00,,---,0.00,VWS V14.01,2013-02-04 14:55:00,
2013-02-04 10:00:00,31.4,18.4,30.09,WSW,238,1.0,2.0,58,0.00,,---,0.00,VWS V14.01,2013-02-04 15:00:00,
2013-02-04 10:06:00,31.4,17.1,30.09,SSE,158,1.0,4.0,55,0.00,,---,0.00,VWS V14.01,2013-02-04 15:06:00,
2013-02-04 10:10:00,31.6,17.3,30.09,South,174,2.0,4.0,55,0.00,,---,0.00,VWS V14.01,2013-02-04 15:10:00,
2013-02-04 10:11:00,31.6,17.3,30.09,SSE,166,0.0,2.0,55,0.00,,---,0.00,VWS V14.01,2013-02-04 15:11:00,
2013-02-04 10:16:00,31.9,17.2,30.09,ESE,118,2.0,3.0,54,0.00,,---,0.00,VWS V14.01,2013-02-04 15:16:00,
2013-02-04 10:20:00,32.0,18.5,30.09,ESE,113,2.0,5.0,57,0.00,,---,0.00,VWS V14.01,2013-02-04 15:20:00,
2013-02-04 10:21:00,31.9,18.0,30.09,East,84,2.0,4.0,56,0.00,,---,0.00,VWS V14.01,2013-02-04 15:21:00,
2013-02-04 10:26:00,31.4,17.9,30.09,East,86,3.0,5.0,57,0.00,,---,0.00,VWS V14.01,2013-02-04 15:26:00,
2013-02-04 10:30:00,31.3,17.9,30.09,ESE,121,2.0,5.0,57,0.00,,---,0.00,VWS V14.01,2013-02-04 15:30:00,
2013-02-04 10:31:00,31.3,17.9,30.08,East,91,2.0,3.0,57,0.00,,---,0.00,VWS V14.01,2013-02-04 15:31:00,
2013-02-04 10:36:00,31.4,18.7,30.09,East,101,3.0,5.0,59,0.00,,---,0.00,VWS V14.01,2013-02-04 15:36:00,
2013-02-04 10:40:00,31.3,17.9,30.09,SSE,152,1.0,5.0,57,0.00,,---,0.00,VWS V14.01,2013-02-04 15:40:00,
2013-02-04 10:41:00,31.3,17.9,30.09,SE,126,0.0,3.0,57,0.00,,---,0.00,VWS V14.01,2013-02-04 15:41:00,
2013-02-04 10:46:00,31.4,17.5,30.08,ESE,114,4.0,4.0,56,0.00,,---,0.00,VWS V14.01,2013-02-04 15:46:00,
2013-02-04 10:50:00,31.5,18.0,30.08,SE,127,1.0,4.0,57,0.00,,---,0.00,VWS V14.01,2013-02-04 15:50:00,
2013-02-04 10:51:00,31.6,18.1,30.08,ESE,102,1.0,2.0,57,0.00,,---,0.00,VWS V14.01,2013-02-04 15:51:00,
2013-02-04 10:56:00,31.8,18.7,30.08,SW,228,3.0,3.0,58,0.00,,---,0.00,VWS V14.01,2013-02-04 15:56:00,
2013-02-04 11:00:00,32.1,16.5,30.08,West,262,2.0,7.0,52,0.00,,---,0.00,VWS V14.01,2013-02-04 16:00:00,
2013-02-04 11:01:00,32.3,16.7,30.08,SSW,201,2.0,5.0,52,0.00,,---,0.00,VWS V14.01,2013-02-04 16:01:00,
2013-02-04 11:06:00,32.5,16.9,30.08,WSW,249,3.0,6.0,52,0.00,,---,0.00,VWS V14.01,2013-02-04 16:06:00,
2013-02-04 11:10:00,32.7,16.1,30.08,SSW,203,1.0,6.0,50,0.00,,---,0.00,VWS V14.01,2013-02-04 16:10:00,
2013-02-04 11:11:00,32.7,16.1,30.08,SSW,197,5.0,5.0,50,0.00,,---,0.00,VWS V14.01,2013-02-04 16:11:00,
2013-02-04 11:16:00,32.8,15.3,30.08,SSW,208,5.0,9.0,48,0.00,,---,0.00,VWS V14.01,2013-02-04 16:16:00,
2013-02-04 11:20:00,32.8,15.8,30.08,WSW,245,4.0,9.0,49,0.00,,---,0.00,VWS V14.01,2013-02-04 16:20:00,
2013-02-04 11:21:00,32.8,15.8,30.08,SSW,205,4.0,4.0,49,0.00,,---,0.00,VWS V14.01,2013-02-04 16:21:00,
2013-02-04 11:26:00,32.8,14.8,30.08,WSW,250,4.0,9.0,47,0.00,,---,0.00,VWS V14.01,2013-02-04 16:26:00,
2013-02-04 11:30:00,32.8,15.8,30.07,SW,226,2.0,9.0,49,0.00,,---,0.00,VWS V14.01,2013-02-04 16:30:00,
2013-02-04 11:31:00,32.9,16.3,30.07,West,277,3.0,5.0,50,0.00,,---,0.00,VWS V14.01,2013-02-04 16:31:00,
2013-02-04 11:36:00,33.1,15.6,30.07,SSW,193,9.0,10.0,48,0.00,,---,0.00,VWS V14.01,2013-02-04 16:36:00,
2013-02-04 11:40:00,33.0,15.5,30.07,SSW,212,8.0,10.0,48,0.00,,---,0.00,VWS V14.01,2013-02-04 16:40:00,
2013-02-04 11:41:00,33.0,15.5,30.07,SW,218,4.0,8.0,48,0.00,,---,0.00,VWS V14.01,2013-02-04 16:41:00,
2013-02-04 11:46:00,33.2,16.1,30.07,West,264,6.0,9.0,49,0.00,,---,0.00,VWS V14.01,2013-02-04 16:46:00,
2013-02-04 11:50:00,33.2,16.1,30.07,SW,236,4.0,9.0,49,0.00,,---,0.00,VWS V14.01,2013-02-04 16:50:00,
2013-02-04 11:51:00,33.2,15.6,30.07,WSW,245,5.0,9.0,48,0.00,,---,0.00,VWS V14.01,2013-02-04 16:51:00,
2013-02-04 11:56:00,33.3,16.7,30.07,West,259,6.0,10.0,50,0.00,,---,0.00,VWS V14.01,2013-02-04 16:56:00,
2013-02-04 12:00:00,33.3,15.7,30.07,SSW,205,4.0,10.0,48,0.00,,---,0.00,VWS V14.01,2013-02-04 17:00:00,
2013-02-04 12:01:00,33.4,16.8,30.07,WSW,255,5.0,6.0,50,0.00,,---,0.00,VWS V14.01,2013-02-04 17:01:00,
2013-02-04 12:06:00,33.7,17.0,30.07,SW,222,4.0,8.0,50,0.00,,---,0.00,VWS V14.01,2013-02-04 17:06:00,
2013-02-04 12:10:00,33.8,15.7,30.06,West,266,3.0,10.0,47,0.00,,---,0.00,VWS V14.01,2013-02-04 17:10:00,
2013-02-04 12:11:00,33.7,15.6,30.06,WSW,245,4.0,6.0,47,0.00,,---,0.00,VWS V14.01,2013-02-04 17:11:00,
2013-02-04 12:16:00,33.8,15.7,30.06,WSW,244,7.0,11.0,47,0.00,,---,0.00,VWS V14.01,2013-02-04 17:16:00,
2013-02-04 12:20:00,33.7,15.6,30.05,SW,226,1.0,11.0,47,0.00,,---,0.00,VWS V14.01,2013-02-04 17:20:00,
2013-02-04 12:21:00,33.9,17.2,30.05,SSW,205,5.0,6.0,50,0.00,,---,0.00,VWS V14.01,2013-02-04 17:21:00,
2013-02-04 12:26:00,34.1,16.0,30.05,SSW,201,8.0,12.0,47,0.00,,---,0.00,VWS V14.01,2013-02-04 17:26:00,
2013-02-04 12:30:00,34.0,15.9,30.05,South,190,5.0,13.0,47,0.00,,---,0.00,VWS V14.01,2013-02-04 17:30:00,
2013-02-04 12:31:00,34.1,15.5,30.04,SW,218,4.0,10.0,46,0.00,,---,0.00,VWS V14.01,2013-02-04 17:31:00,
2013-02-04 12:40:00,35.8,17.1,30.01,SW,222,4.0,12.0,46,0.00,,---,0.00,VWS V14.01,2013-02-04 17:40:00,
2013-02-04 12:46:00,34.4,16.8,30.04,West,279,7.0,7.0,48,0.00,,---,0.00,VWS V14.01,2013-02-04 17:46:00,
2013-02-04 12:50:00,35.8,17.6,30.01,SW,236,6.0,13.0,47,0.00,,---,0.00,VWS V14.01,2013-02-04 17:50:00,
2013-02-04 12:51:00,34.6,15.5,30.03,SSW,203,8.0,11.0,45,0.00,,---,0.00,VWS V14.01,2013-02-04 17:51:00,
2013-02-04 12:56:00,34.7,15.6,30.03,WSW,255,6.0,11.0,45,0.00,,---,0.00,VWS V14.01,2013-02-04 17:56:00,
2013-02-04 13:00:00,36.0,17.2,30.00,SSW,212,6.0,12.0,46,0.00,,---,0.00,VWS V14.01,2013-02-04 18:00:00,
2013-02-04 13:01:00,34.9,16.7,30.03,WSW,252,9.0,10.0,47,0.00,,---,0.00,VWS V14.01,2013-02-04 18:01:00,
2013-02-04 13:06:00,35.2,17.0,30.02,South,179,7.0,10.0,47,0.00,,---,0.00,VWS V14.01,2013-02-04 18:06:00,
2013-02-04 13:10:00,36.4,17.6,29.99,South,191,7.0,11.0,46,0.00,,---,0.00,VWS V14.01,2013-02-04 18:10:00,
2013-02-04 13:11:00,35.2,16.5,30.02,WSW,254,3.0,6.0,46,0.00,,---,0.00,VWS V14.01,2013-02-04 18:11:00,
2013-02-04 13:16:00,35.3,16.1,30.02,West,263,6.0,10.0,45,0.00,,---,0.00,VWS V14.01,2013-02-04 18:16:00,
2013-02-04 13:20:00,36.9,18.1,29.99,WSW,256,4.0,10.0,46,0.00,,---,0.00,VWS V14.01,2013-02-04 18:20:00,
2013-02-04 13:21:00,35.4,16.2,30.02,SW,229,5.0,9.0,45,0.00,,---,0.00,VWS V14.01,2013-02-04 18:21:00,
2013-02-04 13:26:00,35.6,16.9,30.01,WSW,249,5.0,10.0,46,0.00,,---,0.00,VWS V14.01,2013-02-04 18:26:00,
2013-02-04 13:30:00,36.9,19.1,29.98,West,262,7.0,13.0,48,0.00,,---,0.00,VWS V14.01,2013-02-04 18:30:00,
2013-02-04 13:31:00,35.7,17.5,30.01,WSW,245,6.0,9.0,47,0.00,,---,0.00,VWS V14.01,2013-02-04 18:31:00,
2013-02-04 13:36:00,35.7,16.5,30.01,SSW,207,9.0,12.0,45,0.00,,---,0.00,VWS V14.01,2013-02-04 18:36:00,
2013-02-04 13:40:00,36.8,18.0,29.98,SSW,212,7.0,11.0,46,0.00,,---,0.00,VWS V14.01,2013-02-04 18:40:00,
2013-02-04 13:41:00,35.8,17.6,30.01,SW,218,10.0,12.0,47,0.00,,---,0.00,VWS V14.01,2013-02-04 18:41:00,
2013-02-04 13:46:00,35.8,18.0,30.00,SSW,204,6.0,13.0,48,0.00,,---,0.00,VWS V14.01,2013-02-04 18:46:00,
2013-02-04 13:50:00,36.5,17.7,29.98,WSW,249,5.0,14.0,46,0.00,,---,0.00,VWS V14.01,2013-02-04 18:50:00,
2013-02-04 13:51:00,35.9,18.1,30.00,SSE,162,5.0,7.0,48,0.00,,---,0.00,VWS V14.01,2013-02-04 18:51:00,
2013-02-04 13:56:00,36.1,17.8,30.00,WSW,246,6.0,10.0,47,0.00,,---,0.00,VWS V14.01,2013-02-04 18:56:00,
2013-02-04 14:00:00,36.6,18.3,29.98,SW,235,5.0,10.0,47,0.00,,---,0.00,VWS V14.01,2013-02-04 19:00:00,
2013-02-04 14:01:00,36.0,17.7,30.00,SSW,194,6.0,9.0,47,0.00,,---,0.00,VWS V14.01,2013-02-04 19:01:00,
2013-02-04 14:06:00,36.4,18.1,29.99,SSW,204,5.0,9.0,47,0.00,,---,0.00,VWS V14.01,2013-02-04 19:06:00,
2013-02-04 14:10:00,36.5,18.2,29.98,South,189,5.0,10.0,47,0.00,,---,0.00,VWS V14.01,2013-02-04 19:10:00,
2013-02-04 14:11:00,36.4,18.1,29.99,SSW,195,4.0,9.0,47,0.00,,---,0.00,VWS V14.01,2013-02-04 19:11:00,
2013-02-04 14:16:00,36.6,18.8,29.99,SW,215,1.0,10.0,48,0.00,,---,0.00,VWS V14.01,2013-02-04 19:16:00,
2013-02-04 14:20:00,36.5,18.7,29.98,South,187,5.0,13.0,48,0.00,,---,0.00,VWS V14.01,2013-02-04 19:20:00,
2013-02-04 14:21:00,36.9,18.6,29.99,SSW,203,8.0,9.0,47,0.00,,---,0.00,VWS V14.01,2013-02-04 19:21:00,
2013-02-04 14:26:00,36.9,18.1,29.99,SW,226,6.0,13.0,46,0.00,,---,0.00,VWS V14.01,2013-02-04 19:26:00,
2013-02-04 14:30:00,36.4,18.6,29.98,South,186,9.0,11.0,48,0.00,,---,0.00,VWS V14.01,2013-02-04 19:30:00,
2013-02-04 14:31:00,36.9,18.1,29.99,West,275,5.0,8.0,46,0.00,,---,0.00,VWS V14.01,2013-02-04 19:31:00,
2013-02-04 14:36:00,36.8,18.0,29.98,SW,231,7.0,11.0,46,0.00,,---,0.00,VWS V14.01,2013-02-04 19:36:00,
2013-02-04 14:40:00,36.3,19.0,29.98,WSW,240,8.0,11.0,49,0.00,,---,0.00,VWS V14.01,2013-02-04 19:40:00,
2013-02-04 14:41:00,36.8,18.5,29.99,WNW,287,5.0,8.0,47,0.00,,---,0.00,VWS V14.01,2013-02-04 19:41:00,
2013-02-04 14:46:00,36.7,17.4,29.99,SSW,212,6.0,14.0,45,0.00,,---,0.00,VWS V14.01,2013-02-04 19:46:00,
2013-02-04 14:50:00,36.2,18.9,29.97,SSW,210,4.0,12.0,49,0.00,,---,0.00,VWS V14.01,2013-02-04 19:50:00,
2013-02-04 14:51:00,36.5,17.7,29.98,SSW,212,4.0,7.0,46,0.00,,---,0.00,VWS V14.01,2013-02-04 19:51:00,
2013-02-04 14:56:00,36.6,18.3,29.98,SW,235,5.0,10.0,47,0.00,,---,0.00,VWS V14.01,2013-02-04 19:56:00,
2013-02-04 15:00:00,36.0,19.2,29.97,SW,226,4.0,11.0,50,0.00,,---,0.00,VWS V14.01,2013-02-04 20:00:00,
2013-02-04 15:01:00,36.5,17.7,29.98,SSW,212,5.0,7.0,46,0.00,,---,0.00,VWS V14.01,2013-02-04 20:01:00,
2013-02-04 15:07:00,36.5,17.7,29.99,WSW,249,4.0,10.0,46,0.00,,---,0.00,VWS V14.01,2013-02-04 20:07:00,
2013-02-04 15:10:00,36.0,19.2,29.97,SW,224,2.0,11.0,50,0.00,,---,0.00,VWS V14.01,2013-02-04 20:10:00,
2013-02-04 15:12:00,36.5,18.2,29.98,SW,214,5.0,9.0,47,0.00,,---,0.00,VWS V14.01,2013-02-04 20:12:00,
2013-02-04 15:17:00,36.5,18.2,29.98,SSW,208,6.0,13.0,47,0.00,,---,0.00,VWS V14.01,2013-02-04 20:17:00,
2013-02-04 15:20:00,36.0,19.2,29.97,SSW,205,8.0,13.0,50,0.00,,---,0.00,VWS V14.01,2013-02-04 20:20:00,
2013-02-04 15:22:00,36.5,18.7,29.98,SSW,212,3.0,7.0,48,0.00,,---,0.00,VWS V14.01,2013-02-04 20:22:00,
2013-02-04 15:27:00,36.4,19.1,29.98,SW,233,10.0,11.0,49,0.00,,---,0.00,VWS V14.01,2013-02-04 20:27:00,
2013-02-04 15:30:00,35.8,19.0,29.96,WSW,252,8.0,15.0,50,0.00,,---,0.00,VWS V14.01,2013-02-04 20:30:00,
2013-02-04 15:32:00,36.3,19.0,29.98,SW,232,4.0,9.0,49,0.00,,---,0.00,VWS V14.01,2013-02-04 20:32:00,
2013-02-04 15:37:00,36.4,18.6,29.98,WSW,239,5.0,11.0,48,0.00,,---,0.00,VWS V14.01,2013-02-04 20:37:00,
2013-02-04 15:40:00,35.7,18.9,29.96,SSW,201,8.0,12.0,50,0.00,,---,0.00,VWS V14.01,2013-02-04 20:40:00,
2013-02-04 15:42:00,36.2,18.4,29.98,SW,228,6.0,12.0,48,0.00,,---,0.00,VWS V14.01,2013-02-04 20:42:00,
2013-02-04 15:47:00,36.2,18.9,29.97,SW,231,6.0,12.0,49,0.00,,---,0.00,VWS V14.01,2013-02-04 20:47:00,
2013-02-04 15:50:00,35.8,19.5,29.96,WSW,253,2.0,9.0,51,0.00,,---,0.00,VWS V14.01,2013-02-04 20:50:00,
2013-02-04 15:52:00,36.1,18.8,29.97,SW,226,7.0,11.0,49,0.00,,---,0.00,VWS V14.01,2013-02-04 20:52:00,
2013-02-04 15:57:00,36.0,18.7,29.97,SW,218,11.0,11.0,49,0.00,,---,0.00,VWS V14.01,2013-02-04 20:57:00,
2013-02-04 16:00:00,35.8,19.5,29.95,SSW,203,3.0,11.0,51,0.00,,---,0.00,VWS V14.01,2013-02-04 21:00:00,
2013-02-04 16:02:00,36.0,18.7,29.97,West,279,10.0,11.0,49,0.00,,---,0.00,VWS V14.01,2013-02-04 21:02:00,
2013-02-04 16:07:00,35.9,19.1,29.97,WSW,248,5.0,11.0,50,0.00,,---,0.00,VWS V14.01,2013-02-04 21:07:00,
2013-02-04 16:10:00,35.8,19.9,29.95,SW,214,3.0,11.0,52,0.00,,---,0.00,VWS V14.01,2013-02-04 21:10:00,
2013-02-04 16:12:00,36.0,18.7,29.97,SSW,208,4.0,9.0,49,0.00,,---,0.00,VWS V14.01,2013-02-04 21:12:00,
2013-02-04 16:17:00,36.0,19.2,29.97,SW,232,7.0,13.0,50,0.00,,---,0.00,VWS V14.01,2013-02-04 21:17:00,
2013-02-04 16:20:00,35.8,19.9,29.95,SSW,212,4.0,9.0,52,0.00,,---,0.00,VWS V14.01,2013-02-04 21:20:00,
2013-02-04 16:22:00,35.9,18.6,29.97,SW,225,4.0,15.0,49,0.00,,---,0.00,VWS V14.01,2013-02-04 21:22:00,
2013-02-04 16:27:00,35.8,19.0,29.96,SW,215,9.0,15.0,50,0.00,,---,0.00,VWS V14.01,2013-02-04 21:27:00,
2013-02-04 16:30:00,35.8,19.9,29.96,WSW,246,4.0,9.0,52,0.00,,---,0.00,VWS V14.01,2013-02-04 21:30:00,
2013-02-04 16:32:00,35.8,19.0,29.96,WSW,252,11.0,12.0,50,0.00,,---,0.00,VWS V14.01,2013-02-04 21:32:00,
2013-02-04 16:37:00,35.8,19.5,29.96,SW,225,5.0,12.0,51,0.00,,---,0.00,VWS V14.01,2013-02-04 21:37:00,
2013-02-04 16:40:00,35.5,19.6,29.95,South,186,3.0,7.0,52,0.00,,---,0.00,VWS V14.01,2013-02-04 21:40:00,
2013-02-04 16:42:00,35.7,19.4,29.96,South,173,4.0,9.0,51,0.00,,---,0.00,VWS V14.01,2013-02-04 21:42:00,
2013-02-04 16:47:00,35.8,19.5,29.96,SW,226,2.0,9.0,51,0.00,,---,0.00,VWS V14.01,2013-02-04 21:47:00,
2013-02-04 16:50:00,35.3,19.9,29.95,SW,228,3.0,6.0,53,0.00,,---,0.00,VWS V14.01,2013-02-04 21:50:00,
2013-02-04 16:52:00,35.8,19.5,29.96,WSW,255,1.0,5.0,51,0.00,,---,0.00,VWS V14.01,2013-02-04 21:52:00,
2013-02-04 16:57:00,35.8,19.5,29.95,South,184,5.0,11.0,51,0.00,,---,0.00,VWS V14.01,2013-02-04 21:57:00,
2013-02-04 17:00:00,35.0,19.6,29.96,WSW,253,3.0,6.0,53,0.00,,---,0.00,VWS V14.01,2013-02-04 22:00:00,
2013-02-04 17:02:00,35.7,19.8,29.95,SSW,201,2.0,4.0,52,0.00,,---,0.00,VWS V14.01,2013-02-04 22:02:00,
2013-02-04 17:07:00,35.8,19.5,29.95,SSW,208,4.0,11.0,51,0.00,,---,0.00,VWS V14.01,2013-02-04 22:07:00,
2013-02-04 17:10:00,34.8,19.9,29.96,SW,230,1.0,7.0,54,0.00,,---,0.00,VWS V14.01,2013-02-04 22:10:00,
2013-02-04 17:12:00,35.7,19.8,29.95,WSW,257,4.0,8.0,52,0.00,,---,0.00,VWS V14.01,2013-02-04 22:12:00,
2013-02-04 17:17:00,35.7,19.8,29.95,SW,232,5.0,9.0,52,0.00,,---,0.00,VWS V14.01,2013-02-04 22:17:00,
2013-02-04 17:20:00,34.8,19.9,29.95,SSW,205,5.0,6.0,54,0.00,,---,0.00,VWS V14.01,2013-02-04 22:20:00,
2013-02-04 17:22:00,35.8,19.9,29.96,SW,235,6.0,9.0,52,0.00,,---,0.00,VWS V14.01,2013-02-04 22:22:00,
2013-02-04 17:27:00,35.8,19.9,29.95,SW,215,2.0,9.0,52,0.00,,---,0.00,VWS V14.01,2013-02-04 22:27:00,
2013-02-04 17:30:00,34.9,20.4,29.96,SW,226,3.0,8.0,55,0.00,,---,0.00,VWS V14.01,2013-02-04 22:30:00,
2013-02-04 17:32:00,35.7,19.8,29.96,WSW,254,2.0,7.0,52,0.00,,---,0.00,VWS V14.01,2013-02-04 22:32:00,
2013-02-04 17:37:00,35.5,19.6,29.95,SSW,200,4.0,7.0,52,0.00,,---,0.00,VWS V14.01,2013-02-04 22:37:00,
2013-02-04 17:40:00,35.3,20.3,29.95,SW,225,7.0,10.0,54,0.00,,---,0.00,VWS V14.01,2013-02-04 22:40:00,
2013-02-04 17:42:00,35.4,20.0,29.95,SW,218,2.0,6.0,53,0.00,,---,0.00,VWS V14.01,2013-02-04 22:42:00,
2013-02-04 17:47:00,35.3,19.9,29.95,SSW,204,2.0,6.0,53,0.00,,---,0.00,VWS V14.01,2013-02-04 22:47:00,
2013-02-04 17:50:00,35.7,20.7,29.98,West,264,2.0,8.0,54,0.00,,---,0.00,VWS V14.01,2013-02-04 22:50:00,
2013-02-04 17:52:00,35.2,20.2,29.95,SSW,210,4.0,6.0,54,0.00,,---,0.00,VWS V14.01,2013-02-04 22:52:00,
2013-02-04 17:57:00,35.0,19.6,29.96,West,263,3.0,6.0,53,0.00,,---,0.00,VWS V14.01,2013-02-04 22:57:00,
2013-02-04 18:00:00,35.6,20.6,29.97,WSW,238,1.0,6.0,54,0.00,,---,0.00,VWS V14.01,2013-02-04 23:00:00,
2013-02-04 18:02:00,34.9,20.0,29.96,SW,226,3.0,5.0,54,0.00,,---,0.00,VWS V14.01,2013-02-04 23:02:00,
2013-02-04 18:07:00,34.9,20.0,29.96,SW,236,2.0,7.0,54,0.00,,---,0.00,VWS V14.01,2013-02-04 23:07:00,
2013-02-04 18:10:00,35.7,20.7,29.97,SSW,208,4.0,6.0,54,0.00,,---,0.00,VWS V14.01,2013-02-04 23:10:00,
2013-02-04 18:12:00,34.8,19.9,29.96,SW,221,3.0,3.0,54,0.00,,---,0.00,VWS V14.01,2013-02-04 23:12:00,
2013-02-04 18:17:00,34.8,19.9,29.95,SW,215,4.0,6.0,54,0.00,,---,0.00,VWS V14.01,2013-02-04 23:17:00,
2013-02-04 18:20:00,35.8,20.4,29.97,SSW,205,1.0,9.0,53,0.00,,---,0.00,VWS V14.01,2013-02-04 23:20:00,
2013-02-04 18:22:00,34.9,20.0,29.96,SSW,200,5.0,8.0,54,0.00,,---,0.00,VWS V14.01,2013-02-04 23:22:00,
2013-02-04 18:27:00,34.9,20.0,29.96,SW,230,3.0,8.0,54,0.00,,---,0.00,VWS V14.01,2013-02-04 23:27:00,
2013-02-04 18:30:00,35.6,20.6,29.96,WSW,249,1.0,8.0,54,0.00,,---,0.00,VWS V14.01,2013-02-04 23:30:00,
2013-02-04 18:32:00,34.9,20.0,29.96,SSW,211,6.0,7.0,54,0.00,,---,0.00,VWS V14.01,2013-02-04 23:32:00,
2013-02-04 18:37:00,35.2,20.2,29.96,SSW,207,5.0,10.0,54,0.00,,---,0.00,VWS V14.01,2013-02-04 23:37:00,
2013-02-04 18:40:00,35.5,21.0,29.95,South,184,2.0,6.0,55,0.00,,---,0.00,VWS V14.01,2013-02-04 23:40:00,
2013-02-04 18:42:00,35.5,20.5,29.95,SSW,207,4.0,8.0,54,0.00,,---,0.00,VWS V14.01,2013-02-04 23:42:00,
2013-02-04 18:47:00,35.6,20.2,29.97,SW,235,5.0,8.0,53,0.00,,---,0.00,VWS V14.01,2013-02-04 23:47:00,
2013-02-04 18:50:00,35.5,20.5,29.95,SW,232,1.0,6.0,54,0.00,,---,0.00,VWS V14.01,2013-02-04 23:50:00,
2013-02-04 18:53:00,35.7,20.7,29.98,SW,236,2.0,6.0,54,0.00,,---,0.00,VWS V14.01,2013-02-04 23:53:00,
2013-02-04 18:58:00,35.6,20.6,29.97,SSW,198,5.0,6.0,54,0.00,,---,0.00,VWS V14.01,2013-02-04 23:58:00,
2013-02-04 19:00:00,35.5,21.0,29.95,SW,225,0.0,5.0,55,0.00,,---,0.00,VWS V14.01,2013-02-05 00:00:00,
2013-02-04 19:03:00,35.6,20.2,29.97,West,279,2.0,5.0,53,0.00,,---,0.00,VWS V14.01,2013-02-05 00:03:00,
2013-02-04 19:08:00,35.7,20.7,29.97,SSW,201,3.0,5.0,54,0.00,,---,0.00,VWS V14.01,2013-02-05 00:08:00,
2013-02-04 19:10:00,35.5,21.0,29.95,West,278,1.0,5.0,55,0.00,,---,0.00,VWS V14.01,2013-02-05 00:10:00,
2013-02-04 19:13:00,35.7,20.7,29.97,SW,214,6.0,9.0,54,0.00,,---,0.00,VWS V14.01,2013-02-05 00:13:00,
2013-02-04 19:18:00,35.8,20.4,29.97,SW,231,4.0,9.0,53,0.00,,---,0.00,VWS V14.01,2013-02-05 00:18:00,
2013-02-04 19:20:00,35.4,20.9,29.95,West,277,0.0,5.0,55,0.00,,---,0.00,VWS V14.01,2013-02-05 00:20:00,
2013-02-04 19:23:00,35.7,20.7,29.97,SW,222,1.0,8.0,54,0.00,,---,0.00,VWS V14.01,2013-02-05 00:23:00,
2013-02-04 19:28:00,35.6,20.6,29.97,WSW,240,0.0,8.0,54,0.00,,---,0.00,VWS V14.01,2013-02-05 00:28:00,
2013-02-04 19:30:00,35.0,20.9,29.94,West,259,3.0,3.0,56,0.00,,---,0.00,VWS V14.01,2013-02-05 00:30:00,
2013-02-04 19:33:00,35.5,21.0,29.96,SSW,211,2.0,3.0,55,0.00,,---,0.00,VWS V14.01,2013-02-05 00:33:00,
2013-02-04 19:38:00,35.6,20.6,29.96,SSW,207,2.0,6.0,54,0.00,,---,0.00,VWS V14.01,2013-02-05 00:38:00,
2013-02-04 19:40:00,35.0,20.9,29.93,West,270,1.0,4.0,56,0.00,,---,0.00,VWS V14.01,2013-02-05 00:40:00,
2013-02-04 19:43:00,35.5,20.5,29.96,SW,235,4.0,5.0,54,0.00,,---,0.00,VWS V14.01,2013-02-05 00:43:00,
2013-02-04 19:48:00,35.5,21.0,29.96,SSW,195,5.0,5.0,55,0.00,,---,0.00,VWS V14.01,2013-02-05 00:48:00,
2013-02-04 19:50:00,34.7,21.0,29.93,West,280,0.0,2.0,57,0.00,,---,0.00,VWS V14.01,2013-02-05 00:50:00,
2013-02-04 19:53:00,35.5,21.0,29.96,SW,214,3.0,5.0,55,0.00,,---,0.00,VWS V14.01,2013-02-05 00:53:00,
2013-02-04 19:58:00,35.5,21.0,29.96,SW,214,0.0,5.0,55,0.00,,---,0.00,VWS V14.01,2013-02-05 00:58:00,
2013-02-04 20:00:00,34.8,21.1,29.94,WSW,252,0.0,3.0,57,0.00,,---,0.00,VWS V14.01,2013-02-05 01:00:00,
2013-02-04 20:03:00,35.5,21.0,29.95,SW,236,4.0,5.0,55,0.00,,---,0.00,VWS V14.01,2013-02-05 01:03:00,
2013-02-04 20:08:00,35.5,21.0,29.95,WSW,254,2.0,5.0,55,0.00,,---,0.00,VWS V14.01,2013-02-05 01:08:00,
2013-02-04 20:10:00,35.1,21.4,29.93,WSW,239,0.0,6.0,57,0.00,,---,0.00,VWS V14.01,2013-02-05 01:10:00,
2013-02-04 20:13:00,35.5,21.0,29.95,West,269,1.0,5.0,55,0.00,,---,0.00,VWS V14.01,2013-02-05 01:13:00,
2013-02-04 20:18:00,35.4,20.9,29.95,NW,318,0.0,5.0,55,0.00,,---,0.00,VWS V14.01,2013-02-05 01:18:00,
2013-02-04 20:20:00,35.3,21.2,29.93,West,264,6.0,7.0,56,0.00,,---,0.00,VWS V14.01,2013-02-05 01:20:00,
2013-02-04 20:23:00,35.2,21.1,29.94,West,259,0.0,0.0,56,0.00,,---,0.00,VWS V14.01,2013-02-05 01:23:00,
2013-02-04 20:28:00,35.1,21.0,29.93,NW,315,0.0,1.0,56,0.00,,---,0.00,VWS V14.01,2013-02-05 01:28:00,
2013-02-04 20:30:00,35.3,21.2,29.92,WNW,290,1.0,6.0,56,0.00,,---,0.00,VWS V14.01,2013-02-05 01:30:00,
2013-02-04 20:33:00,35.1,21.0,29.93,WSW,256,1.0,4.0,56,0.00,,---,0.00,VWS V14.01,2013-02-05 01:33:00,
2013-02-04 20:38:00,35.0,20.9,29.93,WSW,244,1.0,4.0,56,0.00,,---,0.00,VWS V14.01,2013-02-05 01:38:00,
2013-02-04 20:40:00,35.3,21.2,29.92,West,267,0.0,5.0,56,0.00,,---,0.00,VWS V14.01,2013-02-05 01:40:00,
2013-02-04 20:43:00,34.9,21.2,29.93,WNW,283,2.0,2.0,57,0.00,,---,0.00,VWS V14.01,2013-02-05 01:43:00,
2013-02-04 20:48:00,34.7,21.0,29.93,West,270,0.0,2.0,57,0.00,,---,0.00,VWS V14.01,2013-02-05 01:48:00,
2013-02-04 20:50:00,35.8,21.6,29.92,West,277,2.0,11.0,56,0.00,,---,0.00,VWS V14.01,2013-02-05 01:50:00,
2013-02-04 20:53:00,34.6,21.4,29.93,WSW,249,1.0,2.0,58,0.00,,---,0.00,VWS V14.01,2013-02-05 01:53:00,
2013-02-04 20:59:00,34.7,21.0,29.94,West,262,2.0,3.0,57,0.00,,---,0.00,VWS V14.01,2013-02-05 01:59:00,
2013-02-04 21:00:00,36.4,21.4,29.92,West,280,1.0,9.0,54,0.00,,---,0.00,VWS V14.01,2013-02-05 02:00:00,
2013-02-04 21:04:00,34.9,21.2,29.94,West,273,3.0,6.0,57,0.00,,---,0.00,VWS V14.01,2013-02-05 02:04:00,
2013-02-04 21:09:00,35.1,21.0,29.93,WNW,283,1.0,6.0,56,0.00,,---,0.00,VWS V14.01,2013-02-05 02:09:00,
2013-02-04 21:10:00,36.5,21.9,29.92,WNW,293,4.0,8.0,55,0.00,,---,0.00,VWS V14.01,2013-02-05 02:10:00,
2013-02-04 21:14:00,35.1,21.0,29.93,WSW,252,1.0,7.0,56,0.00,,---,0.00,VWS V14.01,2013-02-05 02:14:00,
2013-02-04 21:19:00,35.3,21.2,29.93,WNW,284,3.0,7.0,56,0.00,,---,0.00,VWS V14.01,2013-02-05 02:19:00,
2013-02-04 21:20:00,35.9,21.3,29.91,NNW,345,1.0,4.0,55,0.00,,---,0.00,VWS V14.01,2013-02-05 02:20:00,
2013-02-04 21:24:00,35.4,21.3,29.93,WSW,256,2.0,6.0,56,0.00,,---,0.00,VWS V14.01,2013-02-05 02:24:00,
2013-02-04 21:29:00,35.3,21.2,29.92,WSW,253,1.0,6.0,56,0.00,,---,0.00,VWS V14.01,2013-02-05 02:29:00,
2013-02-04 21:30:00,34.7,21.0,29.91,WNW,293,1.0,5.0,57,0.00,,---,0.00,VWS V14.01,2013-02-05 02:30:00,
2013-02-04 21:34:00,35.3,21.2,29.92,WNW,283,0.0,5.0,56,0.00,,---,0.00,VWS V14.01,2013-02-05 02:34:00,
2013-02-04 21:39:00,35.4,21.3,29.92,West,267,1.0,5.0,56,0.00,,---,0.00,VWS V14.01,2013-02-05 02:39:00,
2013-02-04 21:40:00,34.0,21.2,29.91,NW,315,2.0,3.0,59,0.00,,---,0.00,VWS V14.01,2013-02-05 02:40:00,
2013-02-04 21:44:00,35.3,21.2,29.93,West,259,3.0,7.0,56,0.00,,---,0.00,VWS V14.01,2013-02-05 02:44:00,
2013-02-04 21:49:00,35.7,21.6,29.92,West,265,6.0,11.0,56,0.00,,---,0.00,VWS V14.01,2013-02-05 02:49:00,
2013-02-04 21:50:00,33.8,21.4,29.91,WNW,285,1.0,4.0,60,0.00,,---,0.00,VWS V14.01,2013-02-05 02:50:00,
2013-02-04 21:54:00,35.9,21.8,29.92,WSW,255,8.0,8.0,56,0.00,,---,0.00,VWS V14.01,2013-02-05 02:54:00,
2013-02-04 21:59:00,36.4,21.4,29.92,SW,222,3.0,9.0,54,0.00,,---,0.00,VWS V14.01,2013-02-05 02:59:00,
2013-02-04 22:00:00,33.9,21.5,29.91,WNW,283,2.0,3.0,60,0.00,,---,0.00,VWS V14.01,2013-02-05 03:00:00,
2013-02-04 22:04:00,36.6,22.0,29.92,WNW,284,3.0,8.0,55,0.00,,---,0.00,VWS V14.01,2013-02-05 03:04:00,
2013-02-04 22:09:00,36.5,21.9,29.92,WNW,290,3.0,8.0,55,0.00,,---,0.00,VWS V14.01,2013-02-05 03:09:00,
2013-02-04 22:10:00,34.3,21.5,29.90,WNW,288,1.0,3.0,59,0.00,,---,0.00,VWS V14.01,2013-02-05 03:10:00,
2013-02-04 22:14:00,36.3,21.7,29.91,WNW,283,1.0,4.0,55,0.00,,---,0.00,VWS V14.01,2013-02-05 03:14:00,
2013-02-04 22:19:00,36.0,21.4,29.91,NW,307,3.0,4.0,55,0.00,,---,0.00,VWS V14.01,2013-02-05 03:19:00,
2013-02-04 22:20:00,34.5,21.7,29.90,WNW,295,1.0,2.0,59,0.00,,---,0.00,VWS V14.01,2013-02-05 03:20:00,
2013-02-04 22:24:00,35.3,21.2,29.91,NW,309,2.0,5.0,56,0.00,,---,0.00,VWS V14.01,2013-02-05 03:24:00,
2013-02-04 22:29:00,34.8,21.1,29.91,NW,305,3.0,5.0,57,0.00,,---,0.00,VWS V14.01,2013-02-05 03:29:00,
2013-02-04 22:30:00,34.8,22.3,29.90,West,281,1.0,2.0,60,0.00,,---,0.00,VWS V14.01,2013-02-05 03:30:00,
2013-02-04 22:34:00,34.4,21.2,29.91,NW,308,2.0,2.0,58,0.00,,---,0.00,VWS V14.01,2013-02-05 03:34:00,
2013-02-04 22:39:00,34.1,21.3,29.91,WNW,301,0.0,3.0,59,0.00,,---,0.00,VWS V14.01,2013-02-05 03:39:00,
2013-02-04 22:40:00,35.0,22.1,29.90,WNW,287,0.0,1.0,59,0.00,,---,0.00,VWS V14.01,2013-02-05 03:40:00,
2013-02-04 22:44:00,33.9,21.1,29.91,WNW,289,0.0,3.0,59,0.00,,---,0.00,VWS V14.01,2013-02-05 03:44:00,
2013-02-04 22:49:00,33.9,21.5,29.90,West,269,1.0,4.0,60,0.00,,---,0.00,VWS V14.01,2013-02-05 03:49:00,
2013-02-04 22:50:00,35.2,22.3,29.89,SW,224,1.0,3.0,59,0.00,,---,0.00,VWS V14.01,2013-02-05 03:50:00,
2013-02-04 22:54:00,33.8,21.4,29.91,WNW,293,1.0,3.0,60,0.00,,---,0.00,VWS V14.01,2013-02-05 03:54:00,
2013-02-04 22:59:00,33.9,21.5,29.91,WNW,283,2.0,3.0,60,0.00,,---,0.00,VWS V14.01,2013-02-05 03:59:00,
2013-02-04 23:00:00,34.8,22.0,29.89,West,262,0.0,1.0,59,0.00,,---,0.00,VWS V14.01,2013-02-05 04:00:00,
2013-02-04 23:05:00,34.1,21.3,29.91,WSW,249,0.0,3.0,59,0.00,,---,0.00,VWS V14.01,2013-02-05 04:05:00,
2013-02-04 23:10:00,34.3,21.5,29.90,WNW,288,0.0,1.0,59,0.00,,---,0.00,VWS V14.01,2013-02-05 04:10:00,
2013-02-04 23:15:00,34.4,21.6,29.90,West,279,2.0,2.0,59,0.00,,---,0.00,VWS V14.01,2013-02-05 04:15:00,
2013-02-04 23:20:00,34.5,21.7,29.90,WNW,295,1.0,1.0,59,0.00,,---,0.00,VWS V14.01,2013-02-05 04:20:00,
2013-02-04 23:25:00,34.6,22.2,29.90,WNW,285,2.0,2.0,60,0.00,,---,0.00,VWS V14.01,2013-02-05 04:25:00,
2013-02-04 23:30:00,34.8,22.3,29.90,West,281,0.0,1.0,60,0.00,,---,0.00,VWS V14.01,2013-02-05 04:30:00,
2013-02-04 23:35:00,34.9,22.0,29.90,WNW,283,0.0,1.0,59,0.00,,---,0.00,VWS V14.01,2013-02-05 04:35:00,
2013-02-04 23:40:00,35.0,22.1,29.90,WNW,288,1.0,1.0,59,0.00,,---,0.00,VWS V14.01,2013-02-05 04:40:00,
2013-02-04 23:45:00,35.1,22.2,29.90,WSW,242,2.0,3.0,59,0.00,,---,0.00,VWS V14.01,2013-02-05 04:45:00,
2013-02-04 23:50:00,35.2,22.3,29.90,SW,224,1.0,1.0,59,0.00,,---,0.00,VWS V14.01,2013-02-05 04:50:00,
2013-02-04 23:55:00,35.1,22.2,29.89,WSW,242,1.0,1.0,59,0.00,,---,0.00,VWS V14.01,2013-02-05 04:55:00,